sensor_id;sensor_type;location;lat;lon;timestamp;pressure;altitude;pressure_sealevel;temperature;humidity
77079;BME280;66004;55.096;38.760;2023-03-12T00:00:27;98082.81;;;2.34;82.33
77079;BME280;66004;55.096;38.760;2023-03-12T00:02:52;98087.97;;;2.45;82.43
77079;BME280;66004;55.096;38.760;2023-03-12T00:05:19;98087.31;;;2.48;82.19
77079;BME280;66004;55.096;38.760;2023-03-12T00:07:47;98071.47;;;2.48;82.50
77079;BME280;66004;55.096;38.760;2023-03-12T00:10:13;98083.53;;;2.52;82.09
77079;BME280;66004;55.096;38.760;2023-03-12T00:12:39;98070.28;;;2.58;82.60
77079;BME280;66004;55.096;38.760;2023-03-12T00:15:05;98062.44;;;2.60;82.37
77079;BME280;66004;55.096;38.760;2023-03-12T00:17:31;98066.97;;;2.65;82.30
77079;BME280;66004;55.096;38.760;2023-03-12T00:19:56;98056.00;;;2.68;82.22
77079;BME280;66004;55.096;38.760;2023-03-12T00:22:22;98058.59;;;2.73;82.33
77079;BME280;66004;55.096;38.760;2023-03-12T00:24:53;98036.84;;;2.76;82.37
77079;BME280;66004;55.096;38.760;2023-03-12T00:27:20;98026.41;;;2.72;82.32
77079;BME280;66004;55.096;38.760;2023-03-12T00:29:46;98029.94;;;2.82;82.53
77079;BME280;66004;55.096;38.760;2023-03-12T00:32:12;98041.03;;;2.82;82.59
77079;BME280;66004;55.096;38.760;2023-03-12T00:34:37;98019.50;;;2.79;82.34
77079;BME280;66004;55.096;38.760;2023-03-12T00:37:03;98021.53;;;2.90;82.78
77079;BME280;66004;55.096;38.760;2023-03-12T00:39:28;98022.81;;;2.93;82.68
77079;BME280;66004;55.096;38.760;2023-03-12T00:41:53;98022.63;;;2.98;82.38
77079;BME280;66004;55.096;38.760;2023-03-12T00:44:19;98010.81;;;3.01;82.52
77079;BME280;66004;55.096;38.760;2023-03-12T00:46:44;98012.44;;;3.02;82.45
77079;BME280;66004;55.096;38.760;2023-03-12T00:49:10;98005.53;;;3.08;82.66
77079;BME280;66004;55.096;38.760;2023-03-12T00:51:36;98008.78;;;3.10;82.68
77079;BME280;66004;55.096;38.760;2023-03-12T00:54:02;98003.34;;;3.14;82.52
77079;BME280;66004;55.096;38.760;2023-03-12T00:56:28;97992.38;;;3.18;82.66
77079;BME280;66004;55.096;38.760;2023-03-12T00:58:53;97981.38;;;3.21;82.54
77079;BME280;66004;55.096;38.760;2023-03-12T01:01:19;97993.78;;;3.24;82.68
77079;BME280;66004;55.096;38.760;2023-03-12T01:03:45;97979.88;;;3.24;82.49
77079;BME280;66004;55.096;38.760;2023-03-12T01:06:10;97979.22;;;3.27;82.51
77079;BME280;66004;55.096;38.760;2023-03-12T01:08:36;97981.78;;;3.32;82.29
77079;BME280;66004;55.096;38.760;2023-03-12T01:11:02;97968.34;;;3.34;82.83
77079;BME280;66004;55.096;38.760;2023-03-12T01:13:28;97975.50;;;3.35;82.45
77079;BME280;66004;55.096;38.760;2023-03-12T01:15:54;97967.66;;;3.37;82.24
77079;BME280;66004;55.096;38.760;2023-03-12T01:18:20;97961.41;;;3.40;82.37
77079;BME280;66004;55.096;38.760;2023-03-12T01:20:45;97953.06;;;3.40;82.57
77079;BME280;66004;55.096;38.760;2023-03-12T01:23:11;97947.97;;;3.42;82.34
77079;BME280;66004;55.096;38.760;2023-03-12T01:25:37;97956.09;;;3.47;82.63
77079;BME280;66004;55.096;38.760;2023-03-12T01:28:03;97946.63;;;3.48;82.34
77079;BME280;66004;55.096;38.760;2023-03-12T01:30:29;97943.84;;;3.48;82.36
77079;BME280;66004;55.096;38.760;2023-03-12T01:32:54;97937.09;;;3.49;82.48
77079;BME280;66004;55.096;38.760;2023-03-12T01:35:20;97944.78;;;3.53;82.59
77079;BME280;66004;55.096;38.760;2023-03-12T01:37:45;97925.31;;;3.53;82.53
77079;BME280;66004;55.096;38.760;2023-03-12T01:40:16;97908.38;;;3.45;82.57
77079;BME280;66004;55.096;38.760;2023-03-12T01:42:42;97933.41;;;3.58;82.62
77079;BME280;66004;55.096;38.760;2023-03-12T01:48:10;97919.97;;;3.60;82.38
77079;BME280;66004;55.096;38.760;2023-03-12T01:50:37;97917.66;;;3.62;82.52
77079;BME280;66004;55.096;38.760;2023-03-12T01:53:02;97915.34;;;3.64;82.30
77079;BME280;66004;55.096;38.760;2023-03-12T01:55:28;97899.47;;;3.64;82.97
77079;BME280;66004;55.096;38.760;2023-03-12T01:57:56;97908.16;;;3.63;82.70
77079;BME280;66004;55.096;38.760;2023-03-12T02:00:25;97872.81;;;3.51;82.90
77079;BME280;66004;55.096;38.760;2023-03-12T02:02:53;97886.03;;;3.66;82.79
77079;BME280;66004;55.096;38.760;2023-03-12T02:07:45;97862.97;;;3.66;82.62
77079;BME280;66004;55.096;38.760;2023-03-12T02:10:11;97865.41;;;3.67;82.82
77079;BME280;66004;55.096;38.760;2023-03-12T02:12:36;97857.66;;;3.73;82.62
77079;BME280;66004;55.096;38.760;2023-03-12T02:15:02;97861.34;;;3.77;82.82
77079;BME280;66004;55.096;38.760;2023-03-12T02:17:29;97848.13;;;3.74;82.62
77079;BME280;66004;55.096;38.760;2023-03-12T02:20:19;97847.56;;;3.81;82.66
77079;BME280;66004;55.096;38.760;2023-03-12T02:22:59;97834.91;;;3.83;82.92
77079;BME280;66004;55.096;38.760;2023-03-12T02:27:57;97831.00;;;3.84;82.75
77079;BME280;66004;55.096;38.760;2023-03-12T02:30:26;97834.91;;;3.83;82.77
77079;BME280;66004;55.096;38.760;2023-03-12T02:32:53;97807.69;;;3.77;82.86
77079;BME280;66004;55.096;38.760;2023-03-12T02:35:19;97818.34;;;3.87;82.87
77079;BME280;66004;55.096;38.760;2023-03-12T02:37:52;97815.22;;;3.88;82.67
77079;BME280;66004;55.096;38.760;2023-03-12T02:40:41;97816.81;;;3.89;82.52
77079;BME280;66004;55.096;38.760;2023-03-12T02:43:09;97808.94;;;3.92;82.50
77079;BME280;66004;55.096;38.760;2023-03-12T02:45:36;97800.25;;;3.93;82.65
77079;BME280;66004;55.096;38.760;2023-03-12T02:48:07;97800.34;;;3.97;83.12
77079;BME280;66004;55.096;38.760;2023-03-12T02:52:55;97796.44;;;3.98;82.39
77079;BME280;66004;55.096;38.760;2023-03-12T02:55:21;97778.78;;;3.94;82.36
77079;BME280;66004;55.096;38.760;2023-03-12T02:57:46;97777.28;;;3.96;82.30
77079;BME280;66004;55.096;38.760;2023-03-12T03:00:12;97774.63;;;4.00;82.39
77079;BME280;66004;55.096;38.760;2023-03-12T03:02:42;97768.78;;;4.05;82.59
77079;BME280;66004;55.096;38.760;2023-03-12T03:05:08;97772.06;;;4.07;82.72
77079;BME280;66004;55.096;38.760;2023-03-12T03:07:35;97771.31;;;4.10;82.69
77079;BME280;66004;55.096;38.760;2023-03-12T03:10:00;97763.44;;;4.12;82.67
77079;BME280;66004;55.096;38.760;2023-03-12T03:12:33;97750.25;;;4.09;82.41
77079;BME280;66004;55.096;38.760;2023-03-12T03:14:59;97750.09;;;4.18;82.57
77079;BME280;66004;55.096;38.760;2023-03-12T03:17:25;97753.31;;;4.20;82.71
77079;BME280;66004;55.096;38.760;2023-03-12T03:19:51;97743.91;;;4.24;82.66
77079;BME280;66004;55.096;38.760;2023-03-12T03:22:18;97734.03;;;4.27;82.67
77079;BME280;66004;55.096;38.760;2023-03-12T03:24:44;97738.56;;;4.32;82.68
77079;BME280;66004;55.096;38.760;2023-03-12T03:27:10;97744.56;;;4.34;82.53
77079;BME280;66004;55.096;38.760;2023-03-12T03:29:36;97733.09;;;4.35;82.32
77079;BME280;66004;55.096;38.760;2023-03-12T03:32:02;97724.34;;;4.37;82.38
77079;BME280;66004;55.096;38.760;2023-03-12T03:34:27;97723.22;;;4.38;82.45
77079;BME280;66004;55.096;38.760;2023-03-12T03:36:53;97725.28;;;4.41;82.33
77079;BME280;66004;55.096;38.760;2023-03-12T03:39:18;97707.66;;;4.37;82.31
77079;BME280;66004;55.096;38.760;2023-03-12T03:41:44;97703.72;;;4.38;82.13
77079;BME280;66004;55.096;38.760;2023-03-12T03:44:11;97716.66;;;4.46;82.22
77079;BME280;66004;55.096;38.760;2023-03-12T03:46:37;97705.53;;;4.46;82.18
77079;BME280;66004;55.096;38.760;2023-03-12T03:49:03;97691.94;;;4.44;82.09
77079;BME280;66004;55.096;38.760;2023-03-12T03:51:29;97693.50;;;4.42;82.19
77079;BME280;66004;55.096;38.760;2023-03-12T03:53:54;97703.19;;;4.48;81.94
77079;BME280;66004;55.096;38.760;2023-03-12T03:56:20;97673.56;;;4.40;82.27
77079;BME280;66004;55.096;38.760;2023-03-12T03:58:45;97694.56;;;4.53;82.35
77079;BME280;66004;55.096;38.760;2023-03-12T04:01:14;97692.25;;;4.55;82.09
77079;BME280;66004;55.096;38.760;2023-03-12T04:03:40;97681.91;;;4.56;82.09
77079;BME280;66004;55.096;38.760;2023-03-12T04:06:06;97677.06;;;4.53;82.24
77079;BME280;66004;55.096;38.760;2023-03-12T04:08:33;97673.66;;;4.59;82.24
77079;BME280;66004;55.096;38.760;2023-03-12T04:11:06;97681.28;;;4.62;82.30
77079;BME280;66004;55.096;38.760;2023-03-12T04:13:33;97669.72;;;4.60;82.24
77079;BME280;66004;55.096;38.760;2023-03-12T04:15:58;97673.38;;;4.64;82.30
77079;BME280;66004;55.096;38.760;2023-03-12T04:18:24;97670.16;;;4.62;82.26
77079;BME280;66004;55.096;38.760;2023-03-12T04:20:49;97668.72;;;4.68;82.47
77079;BME280;66004;55.096;38.760;2023-03-12T04:23:15;97665.47;;;4.66;82.47
77079;BME280;66004;55.096;38.760;2023-03-12T04:25:40;97680.75;;;4.73;82.63
77079;BME280;66004;55.096;38.760;2023-03-12T04:28:06;97673.31;;;4.77;82.21
77079;BME280;66004;55.096;38.760;2023-03-12T04:30:31;97672.13;;;4.78;82.59
77079;BME280;66004;55.096;38.760;2023-03-12T04:32:57;97659.47;;;4.80;82.28
77079;BME280;66004;55.096;38.760;2023-03-12T04:35:22;97669.44;;;4.81;82.27
77079;BME280;66004;55.096;38.760;2023-03-12T04:37:49;97657.13;;;4.82;82.24
77079;BME280;66004;55.096;38.760;2023-03-12T04:40:15;97652.34;;;4.83;82.38
77079;BME280;66004;55.096;38.760;2023-03-12T04:42:43;97643.56;;;4.81;82.36
77079;BME280;66004;55.096;38.760;2023-03-12T04:45:09;97651.66;;;4.86;82.29
77079;BME280;66004;55.096;38.760;2023-03-12T04:47:34;97630.97;;;4.87;82.41
77079;BME280;66004;55.096;38.760;2023-03-12T04:50:00;97645.59;;;4.84;82.19
77079;BME280;66004;55.096;38.760;2023-03-12T04:52:25;97650.03;;;4.85;82.26
77079;BME280;66004;55.096;38.760;2023-03-12T04:54:52;97638.88;;;4.85;82.40
77079;BME280;66004;55.096;38.760;2023-03-12T04:57:18;97635.66;;;4.83;82.33
77079;BME280;66004;55.096;38.760;2023-03-12T04:59:43;97640.50;;;4.86;82.60
77079;BME280;66004;55.096;38.760;2023-03-12T05:02:09;97628.63;;;4.89;82.61
77079;BME280;66004;55.096;38.760;2023-03-12T05:04:34;97637.41;;;4.91;82.35
77079;BME280;66004;55.096;38.760;2023-03-12T05:07:00;97633.47;;;4.92;82.40
77079;BME280;66004;55.096;38.760;2023-03-12T05:09:25;97639.94;;;4.96;82.63
77079;BME280;66004;55.096;38.760;2023-03-12T05:11:51;97637.59;;;4.98;82.61
77079;BME280;66004;55.096;38.760;2023-03-12T05:14:16;97638.47;;;5.02;82.50
77079;BME280;66004;55.096;38.760;2023-03-12T05:16:42;97630.56;;;5.04;82.35
77079;BME280;66004;55.096;38.760;2023-03-12T05:19:07;97626.63;;;5.05;82.36
77079;BME280;66004;55.096;38.760;2023-03-12T05:21:33;97621.06;;;5.05;82.29
77079;BME280;66004;55.096;38.760;2023-03-12T05:23:59;97610.78;;;5.10;82.44
77079;BME280;66004;55.096;38.760;2023-03-12T05:26:33;97608.28;;;5.04;82.33
77079;BME280;66004;55.096;38.760;2023-03-12T05:29:00;97593.09;;;5.02;82.42
77079;BME280;66004;55.096;38.760;2023-03-12T05:31:27;97609.31;;;5.16;82.25
77079;BME280;66004;55.096;38.760;2023-03-12T05:33:57;97580.56;;;5.12;82.23
77079;BME280;66004;55.096;38.760;2023-03-12T05:36:23;97599.97;;;5.24;82.36
77079;BME280;66004;55.096;38.760;2023-03-12T05:38:49;97596.75;;;5.22;82.45
77079;BME280;66004;55.096;38.760;2023-03-12T05:41:20;97595.28;;;5.28;82.45
77079;BME280;66004;55.096;38.760;2023-03-12T05:43:46;97596.16;;;5.32;82.27
77079;BME280;66004;55.096;38.760;2023-03-12T05:46:12;97590.56;;;5.32;81.96
77079;BME280;66004;55.096;38.760;2023-03-12T05:48:37;97602.25;;;5.38;82.47
77079;BME280;66004;55.096;38.760;2023-03-12T05:51:03;97599.47;;;5.38;82.27
77079;BME280;66004;55.096;38.760;2023-03-12T05:53:28;97590.72;;;5.39;82.28
77079;BME280;66004;55.096;38.760;2023-03-12T05:55:54;97590.81;;;5.43;82.12
77079;BME280;66004;55.096;38.760;2023-03-12T05:58:19;97584.88;;;5.44;82.29
77079;BME280;66004;55.096;38.760;2023-03-12T06:00:45;97582.53;;;5.46;82.12
77079;BME280;66004;55.096;38.760;2023-03-12T06:03:11;97582.97;;;5.49;82.09
77079;BME280;66004;55.096;38.760;2023-03-12T06:05:37;97576.63;;;5.52;82.03
77079;BME280;66004;55.096;38.760;2023-03-12T06:08:04;97562.25;;;5.50;82.20
77079;BME280;66004;55.096;38.760;2023-03-12T06:10:30;97571.97;;;5.56;82.11
77079;BME280;66004;55.096;38.760;2023-03-12T06:12:56;97564.03;;;5.58;81.87
77079;BME280;66004;55.096;38.760;2023-03-12T06:15:21;97559.31;;;5.62;82.10
77079;BME280;66004;55.096;38.760;2023-03-12T06:17:48;97564.16;;;5.65;81.83
77079;BME280;66004;55.096;38.760;2023-03-12T06:20:14;97560.63;;;5.68;81.73
77079;BME280;66004;55.096;38.760;2023-03-12T06:22:39;97559.03;;;5.67;81.82
77079;BME280;66004;55.096;38.760;2023-03-12T06:28:26;97541.03;;;5.64;81.86
77079;BME280;66004;55.096;38.760;2023-03-12T06:30:53;97535.53;;;5.68;81.30
77079;BME280;66004;55.096;38.760;2023-03-12T06:33:36;97550.69;;;5.71;81.72
77079;BME280;66004;55.096;38.760;2023-03-12T06:38:42;97543.59;;;5.73;81.75
77079;BME280;66004;55.096;38.760;2023-03-12T06:41:26;97546.81;;;5.75;81.88
77079;BME280;66004;55.096;38.760;2023-03-12T06:43:54;97530.81;;;5.72;81.78
77079;BME280;66004;55.096;38.760;2023-03-12T06:46:20;97531.75;;;5.80;81.38
77079;BME280;66004;55.096;38.760;2023-03-12T06:48:46;97527.88;;;5.84;81.41
77079;BME280;66004;55.096;38.760;2023-03-12T06:51:15;97519.13;;;5.86;81.68
77079;BME280;66004;55.096;38.760;2023-03-12T06:53:44;97517.56;;;5.89;81.66
77079;BME280;66004;55.096;38.760;2023-03-12T06:56:11;97516.06;;;5.95;81.31
77079;BME280;66004;55.096;38.760;2023-03-12T06:58:37;97504.22;;;5.98;81.57
77079;BME280;66004;55.096;38.760;2023-03-12T07:01:03;97512.16;;;5.96;81.29
77079;BME280;66004;55.096;38.760;2023-03-12T07:03:29;97504.47;;;5.93;81.49
77079;BME280;66004;55.096;38.760;2023-03-12T07:05:58;97499.44;;;5.98;81.24
77079;BME280;66004;55.096;38.760;2023-03-12T07:08:27;97495.41;;;5.96;81.43
77079;BME280;66004;55.096;38.760;2023-03-12T07:10:59;97497.91;;;6.01;81.74
77079;BME280;66004;55.096;38.760;2023-03-12T07:13:28;97493.13;;;6.01;81.44
77079;BME280;66004;55.096;38.760;2023-03-12T07:15:54;97483.34;;;5.92;81.27
77079;BME280;66004;55.096;38.760;2023-03-12T07:18:19;97481.00;;;5.94;81.48
77079;BME280;66004;55.096;38.760;2023-03-12T07:20:45;97489.06;;;5.99;81.30
77079;BME280;66004;55.096;38.760;2023-03-12T07:23:12;97475.41;;;5.94;81.34
77079;BME280;66004;55.096;38.760;2023-03-12T07:25:39;97489.06;;;5.99;81.55
77079;BME280;66004;55.096;38.760;2023-03-12T07:28:06;97473.09;;;5.96;81.37
77079;BME280;66004;55.096;38.760;2023-03-12T07:30:33;97490.25;;;5.98;81.42
77079;BME280;66004;55.096;38.760;2023-03-12T07:33:07;97482.59;;;5.95;81.51
77079;BME280;66004;55.096;38.760;2023-03-12T07:35:34;97487.31;;;5.91;81.41
77079;BME280;66004;55.096;38.760;2023-03-12T07:38:00;97464.44;;;5.81;81.52
77079;BME280;66004;55.096;38.760;2023-03-12T07:40:26;97451.72;;;5.84;80.72
77079;BME280;66004;55.096;38.760;2023-03-12T07:42:52;97453.31;;;5.85;81.48
77079;BME280;66004;55.096;38.760;2023-03-12T07:45:18;97456.84;;;5.82;81.45
77079;BME280;66004;55.096;38.760;2023-03-12T07:47:44;97457.25;;;5.80;81.47
77079;BME280;66004;55.096;38.760;2023-03-12T07:50:10;97447.25;;;5.79;81.37
77079;BME280;66004;55.096;38.760;2023-03-12T07:52:35;97452.09;;;5.82;81.44
77079;BME280;66004;55.096;38.760;2023-03-12T07:55:01;97436.81;;;5.76;81.33
77079;BME280;66004;55.096;38.760;2023-03-12T07:57:26;97450.03;;;5.79;81.30
77079;BME280;66004;55.096;38.760;2023-03-12T07:59:52;97447.25;;;5.79;81.14
77079;BME280;66004;55.096;38.760;2023-03-12T08:02:17;97403.91;;;5.62;80.98
77079;BME280;66004;55.096;38.760;2023-03-12T08:04:43;97416.06;;;5.74;81.07
77079;BME280;66004;55.096;38.760;2023-03-12T08:07:08;97408.63;;;5.81;81.25
77079;BME280;66004;55.096;38.760;2023-03-12T08:09:34;97410.69;;;5.84;81.30
77079;BME280;66004;55.096;38.760;2023-03-12T08:11:59;97401.13;;;5.85;81.00
77079;BME280;66004;55.096;38.760;2023-03-12T08:14:25;97405.22;;;5.92;80.90
77079;BME280;66004;55.096;38.760;2023-03-12T08:16:56;97392.50;;;5.94;80.94
77079;BME280;66004;55.096;38.760;2023-03-12T08:19:21;97395.75;;;5.96;80.81
77079;BME280;66004;55.096;38.760;2023-03-12T08:21:47;97366.16;;;5.92;80.83
77079;BME280;66004;55.096;38.760;2023-03-12T08:24:12;97385.25;;;5.90;80.76
77079;BME280;66004;55.096;38.760;2023-03-12T08:26:38;97356.91;;;5.88;80.92
77079;BME280;66004;55.096;38.760;2023-03-12T08:29:03;97351.00;;;5.93;80.97
77079;BME280;66004;55.096;38.760;2023-03-12T08:31:29;97323.41;;;5.88;80.84
77079;BME280;66004;55.096;38.760;2023-03-12T08:33:54;97329.56;;;5.97;80.80
77079;BME280;66004;55.096;38.760;2023-03-12T08:36:20;97299.19;;;5.92;80.75
77079;BME280;66004;55.096;38.760;2023-03-12T08:38:45;97333.22;;;6.01;80.43
77079;BME280;66004;55.096;38.760;2023-03-12T08:41:11;97329.09;;;5.95;80.62
77079;BME280;66004;55.096;38.760;2023-03-12T08:43:36;97326.97;;;5.84;80.54
77079;BME280;66004;55.096;38.760;2023-03-12T08:46:02;97315.03;;;5.88;80.68
77079;BME280;66004;55.096;38.760;2023-03-12T08:48:29;97321.41;;;5.84;80.83
77079;BME280;66004;55.096;38.760;2023-03-12T08:52:57;97313.28;;;5.76;80.35
77079;BME280;66004;55.096;38.760;2023-03-12T08:55:24;97298.72;;;5.63;80.65
77079;BME280;66004;55.096;38.760;2023-03-12T08:57:53;97308.84;;;5.71;80.77
77079;BME280;66004;55.096;38.760;2023-03-12T09:00:19;97302.84;;;5.69;80.62
77079;BME280;66004;55.096;38.760;2023-03-12T09:02:46;97290.06;;;5.68;81.00
77079;BME280;66004;55.096;38.760;2023-03-12T09:05:12;97293.28;;;5.70;80.83
77079;BME280;66004;55.096;38.760;2023-03-12T09:07:38;97276.00;;;5.61;80.93
77079;BME280;66004;55.096;38.760;2023-03-12T09:10:04;97287.31;;;5.72;80.99
77079;BME280;66004;55.096;38.760;2023-03-12T09:12:30;97282.22;;;5.77;80.78
77079;BME280;66004;55.096;38.760;2023-03-12T09:14:56;97270.31;;;5.80;80.82
77079;BME280;66004;55.096;38.760;2023-03-12T09:17:22;97273.16;;;5.84;80.67
77079;BME280;66004;55.096;38.760;2023-03-12T09:19:47;97267.19;;;5.85;80.63
77079;BME280;66004;55.096;38.760;2023-03-12T09:22:13;97260.00;;;5.84;80.67
77079;BME280;66004;55.096;38.760;2023-03-12T09:24:38;97246.31;;;5.76;80.81
77079;BME280;66004;55.096;38.760;2023-03-12T09:27:03;97257.59;;;5.83;80.64
77079;BME280;66004;55.096;38.760;2023-03-12T09:29:30;97248.81;;;5.81;80.70
77079;BME280;66004;55.096;38.760;2023-03-12T09:31:56;97251.97;;;5.79;80.78
77079;BME280;66004;55.096;38.760;2023-03-12T09:34:21;97241.53;;;5.76;80.76
77079;BME280;66004;55.096;38.760;2023-03-12T09:36:47;97233.84;;;5.66;80.83
77079;BME280;66004;55.096;38.760;2023-03-12T09:39:13;97242.38;;;5.77;80.67
77079;BME280;66004;55.096;38.760;2023-03-12T09:41:40;97240.81;;;5.79;80.69
77079;BME280;66004;55.096;38.760;2023-03-12T09:46:47;97228.94;;;5.86;80.82
77079;BME280;66004;55.096;38.760;2023-03-12T09:49:21;97215.97;;;5.97;80.53
77079;BME280;66004;55.096;38.760;2023-03-12T09:51:57;97222.78;;;6.00;80.58
77079;BME280;66004;55.096;38.760;2023-03-12T09:56:50;97213.25;;;6.04;80.50
77079;BME280;66004;55.096;38.760;2023-03-12T09:59:16;97196.50;;;6.01;80.59
77079;BME280;66004;55.096;38.760;2023-03-12T10:01:50;97205.31;;;6.07;80.47
77079;BME280;66004;55.096;38.760;2023-03-12T10:06:58;97191.75;;;6.05;80.27
77079;BME280;66004;55.096;38.760;2023-03-12T10:15:00;97164.69;;;6.09;80.60
77079;BME280;66004;55.096;38.760;2023-03-12T10:17:34;97165.50;;;6.13;80.40
77079;BME280;66004;55.096;38.760;2023-03-12T10:28:20;97140.41;;;6.13;80.04
77079;BME280;66004;55.096;38.760;2023-03-12T10:30:53;97129.59;;;6.12;80.12
77079;BME280;66004;55.096;38.760;2023-03-12T10:33:19;97132.06;;;6.17;80.52
77079;BME280;66004;55.096;38.760;2023-03-12T10:35:48;97125.69;;;6.16;80.20
77079;BME280;66004;55.096;38.760;2023-03-12T10:38:19;97104.81;;;6.03;80.33
77079;BME280;66004;55.096;38.760;2023-03-12T10:40:47;97120.91;;;6.17;80.34
77079;BME280;66004;55.096;38.760;2023-03-12T10:43:13;97098.44;;;6.06;80.37
77079;BME280;66004;55.096;38.760;2023-03-12T10:46:00;97114.06;;;6.11;80.25
77079;BME280;66004;55.096;38.760;2023-03-12T10:48:31;97106.78;;;6.02;80.14
77079;BME280;66004;55.096;38.760;2023-03-12T10:51:05;97100.81;;;6.04;80.34
77079;BME280;66004;55.096;38.760;2023-03-12T10:53:33;97104.81;;;6.03;80.62
77079;BME280;66004;55.096;38.760;2023-03-12T10:56:08;97088.34;;;5.94;80.60
77079;BME280;66004;55.096;38.760;2023-03-12T10:58:46;97085.63;;;5.98;81.04
77079;BME280;66004;55.096;38.760;2023-03-12T11:01:18;97079.97;;;5.94;80.80
77079;BME280;66004;55.096;38.760;2023-03-12T11:03:44;97059.22;;;5.92;80.64
77079;BME280;66004;55.096;38.760;2023-03-12T11:06:27;97077.66;;;6.00;80.81
77079;BME280;66004;55.096;38.760;2023-03-12T11:11:36;97067.41;;;6.11;80.52
77079;BME280;66004;55.096;38.760;2023-03-12T11:14:23;97076.53;;;6.08;80.62
77079;BME280;66004;55.096;38.760;2023-03-12T11:16:55;97060.91;;;6.00;80.64
77079;BME280;66004;55.096;38.760;2023-03-12T11:19:34;97042.91;;;5.94;80.76
77079;BME280;66004;55.096;38.760;2023-03-12T11:22:02;97054.16;;;6.01;80.53
77079;BME280;66004;55.096;38.760;2023-03-12T11:24:28;97052.97;;;6.02;80.58
77079;BME280;66004;55.096;38.760;2023-03-12T11:27:10;97059.34;;;6.02;80.61
77079;BME280;66004;55.096;38.760;2023-03-12T11:29:50;97059.28;;;5.99;80.75
77079;BME280;66004;55.096;38.760;2023-03-12T11:32:37;97052.84;;;5.95;80.88
77079;BME280;66004;55.096;38.760;2023-03-12T11:35:09;97042.47;;;5.92;80.72
77079;BME280;66004;55.096;38.760;2023-03-12T11:37:51;97039.69;;;5.92;81.17
77079;BME280;66004;55.096;38.760;2023-03-12T11:43:40;97030.44;;;5.88;81.09
77079;BME280;66004;55.096;38.760;2023-03-12T11:58:01;97020.22;;;5.99;81.04
77079;BME280;66004;55.096;38.760;2023-03-12T12:00:41;97033.00;;;6.00;81.01
77079;BME280;66004;55.096;38.760;2023-03-12T12:03:28;97013.88;;;6.02;81.13
77079;BME280;66004;55.096;38.760;2023-03-12T12:06:18;96997.56;;;6.04;80.87
77079;BME280;66004;55.096;38.760;2023-03-12T12:17:20;96997.97;;;6.06;81.28
77079;BME280;66004;55.096;38.760;2023-03-12T12:20:09;96992.00;;;6.08;81.25
77079;BME280;66004;55.096;38.760;2023-03-12T12:33:54;96977.38;;;6.21;80.87
77079;BME280;66004;55.096;38.760;2023-03-12T12:36:29;96965.75;;;6.12;81.19
77079;BME280;66004;55.096;38.760;2023-03-12T12:39:12;96976.53;;;6.17;80.81
77079;BME280;66004;55.096;38.760;2023-03-12T12:41:50;96949.34;;;6.07;80.96
77079;BME280;66004;55.096;38.760;2023-03-12T12:44:23;96972.13;;;6.13;80.83
77079;BME280;66004;55.096;38.760;2023-03-12T12:46:57;96963.69;;;6.06;80.98
77079;BME280;66004;55.096;38.760;2023-03-12T12:52:14;96956.59;;;6.15;80.98
77079;BME280;66004;55.096;38.760;2023-03-12T12:57:54;96956.59;;;6.15;80.60
77079;BME280;66004;55.096;38.760;2023-03-12T13:03:03;96946.97;;;6.09;80.80
77079;BME280;66004;55.096;38.760;2023-03-12T13:08:03;96926.72;;;6.19;81.13
77079;BME280;66004;55.096;38.760;2023-03-12T13:12:59;96932.69;;;6.21;80.64
77079;BME280;66004;55.096;38.760;2023-03-12T13:23:31;96936.63;;;6.13;81.05
77079;BME280;66004;55.096;38.760;2023-03-12T13:26:05;96923.88;;;6.12;81.18
77079;BME280;66004;55.096;38.760;2023-03-12T13:28:55;96937.00;;;6.08;81.18
77079;BME280;66004;55.096;38.760;2023-03-12T13:33:58;96925.75;;;5.97;81.34
77079;BME280;66004;55.096;38.760;2023-03-12T13:36:26;96940.50;;;5.98;81.42
77079;BME280;66004;55.096;38.760;2023-03-12T13:41:39;96941.34;;;6.02;81.65
77079;BME280;66004;55.096;38.760;2023-03-12T13:49:25;96934.00;;;5.87;81.79
77079;BME280;66004;55.096;38.760;2023-03-12T13:54:49;96948.34;;;5.85;81.77
77079;BME280;66004;55.096;38.760;2023-03-12T13:59:51;96953.38;;;5.72;81.94
77079;BME280;66004;55.096;38.760;2023-03-12T14:02:37;97030.31;;;5.73;81.72
77079;BME280;66004;55.096;38.760;2023-03-12T14:05:08;97025.25;;;5.15;77.53
77079;BME280;66004;55.096;38.760;2023-03-12T14:11:05;97064.19;;;3.46;78.14
77079;BME280;66004;55.096;38.760;2023-03-12T14:16:41;97080.34;;;2.50;77.47
77079;BME280;66004;55.096;38.760;2023-03-12T14:19:11;97091.75;;;2.13;76.91
77079;BME280;66004;55.096;38.760;2023-03-12T14:21:38;97101.16;;;1.80;77.46
77079;BME280;66004;55.096;38.760;2023-03-12T14:24:06;97100.03;;;1.53;78.73
77079;BME280;66004;55.096;38.760;2023-03-12T14:26:35;97112.78;;;1.42;79.12
77079;BME280;66004;55.096;38.760;2023-03-12T14:29:13;97128.16;;;1.27;79.17
77079;BME280;66004;55.096;38.760;2023-03-12T14:31:44;97136.94;;;1.16;79.66
77079;BME280;66004;55.096;38.760;2023-03-12T14:34:22;97137.22;;;0.99;79.20
77079;BME280;66004;55.096;38.760;2023-03-12T14:37:12;97152.00;;;0.78;79.57
77079;BME280;66004;55.096;38.760;2023-03-12T14:39:52;97162.84;;;0.59;79.84
77079;BME280;66004;55.096;38.760;2023-03-12T14:42:26;97188.19;;;0.49;80.01
77079;BME280;66004;55.096;38.760;2023-03-12T14:44:59;97188.97;;;0.37;80.53
77079;BME280;66004;55.096;38.760;2023-03-12T14:47:26;97184.69;;;0.27;81.21
77079;BME280;66004;55.096;38.760;2023-03-12T15:11:10;97286.63;;;-0.05;80.91
77079;BME280;66004;55.096;38.760;2023-03-12T15:13:39;97309.91;;;-0.06;81.26
77079;BME280;66004;55.096;38.760;2023-03-12T15:16:05;97315.03;;;-0.16;81.58
77079;BME280;66004;55.096;38.760;2023-03-12T15:18:32;97317.84;;;-0.25;81.36
77079;BME280;66004;55.096;38.760;2023-03-12T15:21:00;97334.81;;;-0.35;81.29
77079;BME280;66004;55.096;38.760;2023-03-12T15:23:29;97347.88;;;-0.45;82.30
77079;BME280;66004;55.096;38.760;2023-03-12T15:28:39;97376.91;;;-0.68;81.88
77079;BME280;66004;55.096;38.760;2023-03-12T15:31:13;97395.28;;;-0.81;81.40